sensor_id;sensor_type;location;lat;lon;timestamp;pressure;altitude;pressure_sealevel;temperature;humidity
59315;BME280;46521;50.160;20.802;2023-04-09T00:14:49;100367.03;;;2.42;81.68
59315;BME280;46521;50.160;20.802;2023-04-09T00:24:50;100354.98;;;2.12;81.94
59315;BME280;46521;50.160;20.802;2023-04-09T00:34:52;100347.92;;;2.00;82.07
59315;BME280;46521;50.160;20.802;2023-04-09T00:44:53;100351.81;;;2.07;82.62
59315;BME280;46521;50.160;20.802;2023-04-09T00:54:55;100356.07;;;2.22;82.94
59315;BME280;46521;50.160;20.802;2023-04-09T01:04:59;100358.20;;;2.30;82.62
59315;BME280;46521;50.160;20.802;2023-04-09T01:15:14;100362.39;;;2.32;82.47
59315;BME280;46521;50.160;20.802;2023-04-09T01:25:42;100372.25;;;2.42;82.75
59315;BME280;46521;50.160;20.802;2023-04-09T01:35:46;100382.94;;;2.51;82.60
59315;BME280;46521;50.160;20.802;2023-04-09T01:45:49;100371.27;;;2.57;83.37
59315;BME280;46521;50.160;20.802;2023-04-09T01:55:51;100365.78;;;2.47;82.77
59315;BME280;46521;50.160;20.802;2023-04-09T02:16:04;100364.13;;;2.46;83.11
59315;BME280;46521;50.160;20.802;2023-04-09T02:26:06;100365.39;;;2.53;83.32
59315;BME280;46521;50.160;20.802;2023-04-09T02:36:11;100362.58;;;2.57;83.65
59315;BME280;46521;50.160;20.802;2023-04-09T02:46:13;100349.13;;;2.63;83.29
59315;BME280;46521;50.160;20.802;2023-04-09T02:56:14;100354.78;;;2.69;83.72
59315;BME280;46521;50.160;20.802;2023-04-09T03:06:16;100346.55;;;2.76;83.80
59315;BME280;46521;50.160;20.802;2023-04-09T03:16:18;100350.34;;;2.84;84.11
59315;BME280;46521;50.160;20.802;2023-04-09T03:26:20;100348.16;;;2.91;84.09
59315;BME280;46521;50.160;20.802;2023-04-09T03:36:22;100352.97;;;2.97;83.84
59315;BME280;46521;50.160;20.802;2023-04-09T03:46:23;100354.45;;;3.01;84.06
59315;BME280;46521;50.160;20.802;2023-04-09T03:56:25;100359.48;;;3.04;83.48
59315;BME280;46521;50.160;20.802;2023-04-09T04:06:27;100363.95;;;3.02;83.21
59315;BME280;46521;50.160;20.802;2023-04-09T04:16:28;100363.63;;;2.94;84.07
59315;BME280;46521;50.160;20.802;2023-04-09T04:26:30;100370.54;;;2.95;84.03
59315;BME280;46521;50.160;20.802;2023-04-09T04:36:31;100369.38;;;2.99;83.34
59315;BME280;46521;50.160;20.802;2023-04-09T04:46:33;100382.45;;;2.99;83.37
59315;BME280;46521;50.160;20.802;2023-04-09T04:56:34;100387.27;;;3.05;83.61
59315;BME280;46521;50.160;20.802;2023-04-09T05:06:36;100389.38;;;3.13;83.63
59315;BME280;46521;50.160;20.802;2023-04-09T05:16:37;100383.75;;;3.32;84.02
59315;BME280;46521;50.160;20.802;2023-04-09T05:27:05;100402.28;;;3.68;84.81
59315;BME280;46521;50.160;20.802;2023-04-09T05:37:07;100396.27;;;4.04;84.25
59315;BME280;46521;50.160;20.802;2023-04-09T05:47:08;100407.20;;;4.35;84.69
59315;BME280;46521;50.160;20.802;2023-04-09T05:57:10;100417.63;;;4.48;84.38
59315;BME280;46521;50.160;20.802;2023-04-09T06:07:11;100423.95;;;4.69;84.64
59315;BME280;46521;50.160;20.802;2023-04-09T06:17:13;100440.84;;;4.90;84.34
59315;BME280;46521;50.160;20.802;2023-04-09T06:27:14;100446.92;;;4.90;84.08
59315;BME280;46521;50.160;20.802;2023-04-09T06:37:16;100450.66;;;4.99;84.37
59315;BME280;46521;50.160;20.802;2023-04-09T06:47:17;100445.23;;;5.13;84.40
59315;BME280;46521;50.160;20.802;2023-04-09T06:57:19;100450.97;;;5.18;84.17
59315;BME280;46521;50.160;20.802;2023-04-09T07:07:20;100449.01;;;5.33;84.70
59315;BME280;46521;50.160;20.802;2023-04-09T07:17:22;100456.81;;;5.57;84.72
59315;BME280;46521;50.160;20.802;2023-04-09T07:27:27;100459.68;;;5.66;84.72
59315;BME280;46521;50.160;20.802;2023-04-09T07:37:29;100461.55;;;6.33;84.42
59315;BME280;46521;50.160;20.802;2023-04-09T07:47:31;100464.93;;;7.44;83.67
59315;BME280;46521;50.160;20.802;2023-04-09T07:57:33;100466.20;;;8.63;83.26
59315;BME280;46521;50.160;20.802;2023-04-09T08:07:34;100469.48;;;9.15;82.29
59315;BME280;46521;50.160;20.802;2023-04-09T08:17:36;100469.48;;;9.15;81.55
59315;BME280;46521;50.160;20.802;2023-04-09T08:27:38;100470.14;;;9.56;81.05
59315;BME280;46521;50.160;20.802;2023-04-09T08:37:39;100465.68;;;10.14;80.52
59315;BME280;46521;50.160;20.802;2023-04-09T08:47:42;100460.32;;;10.61;79.71
59315;BME280;46521;50.160;20.802;2023-04-09T08:57:44;100467.69;;;11.40;79.54
59315;BME280;46521;50.160;20.802;2023-04-09T09:07:52;100447.63;;;12.16;78.63
59315;BME280;46521;50.160;20.802;2023-04-09T09:17:56;100456.06;;;12.54;78.13
59315;BME280;46521;50.160;20.802;2023-04-09T09:28:06;100451.15;;;12.75;76.02
59315;BME280;46521;50.160;20.802;2023-04-09T09:38:09;100443.80;;;12.53;76.22
59315;BME280;46521;50.160;20.802;2023-04-09T09:48:10;100443.55;;;12.89;75.82
59315;BME280;46521;50.160;20.802;2023-04-09T09:58:18;100443.55;;;12.80;74.60
59315;BME280;46521;50.160;20.802;2023-04-09T10:08:23;100433.79;;;13.06;73.96
59315;BME280;46521;50.160;20.802;2023-04-09T10:18:25;100433.30;;;13.35;72.07
59315;BME280;46521;50.160;20.802;2023-04-09T10:28:27;100424.28;;;12.78;72.96
59315;BME280;46521;50.160;20.802;2023-04-09T10:48:36;100414.72;;;11.92;72.07
59315;BME280;46521;50.160;20.802;2023-04-09T10:58:37;100414.80;;;11.82;72.28
59315;BME280;46521;50.160;20.802;2023-04-09T11:08:39;100411.27;;;11.73;72.33
59315;BME280;46521;50.160;20.802;2023-04-09T11:18:45;100411.06;;;11.41;71.40
59315;BME280;46521;50.160;20.802;2023-04-09T11:28:46;100413.45;;;11.08;70.99
59315;BME280;46521;50.160;20.802;2023-04-09T11:38:48;100411.35;;;10.93;70.53
59315;BME280;46521;50.160;20.802;2023-04-09T11:48:52;100413.56;;;10.80;70.70
59315;BME280;46521;50.160;20.802;2023-04-09T11:58:54;100418.97;;;10.60;70.48
59315;BME280;46521;50.160;20.802;2023-04-09T12:08:56;100419.92;;;10.41;70.34
59315;BME280;46521;50.160;20.802;2023-04-09T12:19:08;100419.69;;;10.35;70.70
59315;BME280;46521;50.160;20.802;2023-04-09T12:39:15;100428.13;;;10.66;70.91
59315;BME280;46521;50.160;20.802;2023-04-09T12:49:42;100413.56;;;10.80;70.27
59315;BME280;46521;50.160;20.802;2023-04-09T12:59:47;100411.35;;;10.93;69.96
59315;BME280;46521;50.160;20.802;2023-04-09T13:09:48;100418.47;;;10.93;70.15
59315;BME280;46521;50.160;20.802;2023-04-09T13:29:57;100405.98;;;10.85;69.85
59315;BME280;46521;50.160;20.802;2023-04-09T13:40:02;100395.70;;;10.82;69.35
59315;BME280;46521;50.160;20.802;2023-04-09T13:50:06;100412.86;;;10.78;69.39
59315;BME280;46521;50.160;20.802;2023-04-09T14:00:13;100407.12;;;10.64;69.35
59315;BME280;46521;50.160;20.802;2023-04-09T14:10:15;100404.50;;;10.37;69.63
59315;BME280;46521;50.160;20.802;2023-04-09T14:20:42;100398.89;;;10.12;69.99
59315;BME280;46521;50.160;20.802;2023-04-09T14:30:44;100384.33;;;10.08;69.50
59315;BME280;46521;50.160;20.802;2023-04-09T14:40:50;100387.05;;;10.16;70.04
59315;BME280;46521;50.160;20.802;2023-04-09T14:50:53;100381.91;;;10.15;69.67
59315;BME280;46521;50.160;20.802;2023-04-09T15:00:56;100376.39;;;10.08;70.16
59315;BME280;46521;50.160;20.802;2023-04-09T15:11:01;100375.98;;;10.03;69.26
59315;BME280;46521;50.160;20.802;2023-04-09T15:21:03;100366.41;;;10.02;69.46
59315;BME280;46521;50.160;20.802;2023-04-09T15:31:08;100355.98;;;10.00;69.45
59315;BME280;46521;50.160;20.802;2023-04-09T15:41:34;100364.44;;;10.04;69.30
59315;BME280;46521;50.160;20.802;2023-04-09T15:51:36;100362.38;;;9.98;69.32
59315;BME280;46521;50.160;20.802;2023-04-09T16:01:42;100349.76;;;9.91;68.56
59315;BME280;46521;50.160;20.802;2023-04-09T16:11:48;100356.33;;;9.87;69.17
59315;BME280;46521;50.160;20.802;2023-04-09T16:21:55;100352.30;;;9.83;68.78
59315;BME280;46521;50.160;20.802;2023-04-09T16:32:00;100349.86;;;9.72;69.12
59315;BME280;46521;50.160;20.802;2023-04-09T16:42:05;100357.41;;;9.57;68.88
59315;BME280;46521;50.160;20.802;2023-04-09T16:52:07;100355.38;;;9.41;69.19
59315;BME280;46521;50.160;20.802;2023-04-09T17:02:08;100369.99;;;9.26;69.51
59315;BME280;46521;50.160;20.802;2023-04-09T17:12:11;100382.39;;;9.15;69.43
59315;BME280;46521;50.160;20.802;2023-04-09T17:22:37;100377.95;;;9.06;69.97
59315;BME280;46521;50.160;20.802;2023-04-09T17:32:39;100389.06;;;9.00;69.98
59315;BME280;46521;50.160;20.802;2023-04-09T17:42:41;100408.37;;;8.81;70.42
59315;BME280;46521;50.160;20.802;2023-04-09T17:52:47;100413.47;;;8.63;71.18
59315;BME280;46521;50.160;20.802;2023-04-09T18:02:50;100432.05;;;8.52;71.34
59315;BME280;46521;50.160;20.802;2023-04-09T18:12:55;100436.91;;;8.46;71.87
59315;BME280;46521;50.160;20.802;2023-04-09T18:23:22;100455.14;;;8.38;72.06
59315;BME280;46521;50.160;20.802;2023-04-09T18:33:24;100454.29;;;8.28;72.20
59315;BME280;46521;50.160;20.802;2023-04-09T18:43:31;100467.83;;;8.14;71.97
59315;BME280;46521;50.160;20.802;2023-04-09T18:53:32;100470.79;;;7.99;72.61
59315;BME280;46521;50.160;20.802;2023-04-09T19:03:34;100460.21;;;7.89;72.88
59315;BME280;46521;50.160;20.802;2023-04-09T19:13:38;100457.62;;;7.68;72.38
59315;BME280;46521;50.160;20.802;2023-04-09T19:23:40;100462.48;;;7.52;72.77
59315;BME280;46521;50.160;20.802;2023-04-09T19:33:42;100468.64;;;7.41;73.43
59315;BME280;46521;50.160;20.802;2023-04-09T19:43:46;100468.07;;;7.37;73.02
59315;BME280;46521;50.160;20.802;2023-04-09T19:53:48;100464.02;;;7.33;73.22
59315;BME280;46521;50.160;20.802;2023-04-09T20:03:49;100457.48;;;7.28;73.78
59315;BME280;46521;50.160;20.802;2023-04-09T20:13:51;100452.15;;;7.18;73.78
59315;BME280;46521;50.160;20.802;2023-04-09T20:23:53;100451.59;;;7.03;74.24
59315;BME280;46521;50.160;20.802;2023-04-09T20:33:54;100456.08;;;6.91;74.00
59315;BME280;46521;50.160;20.802;2023-04-09T20:43:56;100451.08;;;6.77;74.28
59315;BME280;46521;50.160;20.802;2023-04-09T20:53:58;100456.25;;;6.67;73.66
59315;BME280;46521;50.160;20.802;2023-04-09T21:03:59;100457.83;;;6.58;74.91
59315;BME280;46521;50.160;20.802;2023-04-09T21:14:01;100458.32;;;6.52;74.87
59315;BME280;46521;50.160;20.802;2023-04-09T21:24:04;100469.31;;;6.46;75.07
59315;BME280;46521;50.160;20.802;2023-04-09T21:34:05;100455.20;;;6.47;75.36
59315;BME280;46521;50.160;20.802;2023-04-09T21:44:07;100455.56;;;6.42;75.10
59315;BME280;46521;50.160;20.802;2023-04-09T21:54:09;100450.91;;;6.35;75.60
59315;BME280;46521;50.160;20.802;2023-04-09T22:04:11;100450.09;;;6.34;74.94
59315;BME280;46521;50.160;20.802;2023-04-09T22:14:13;100458.09;;;6.33;75.74
59315;BME280;46521;50.160;20.802;2023-04-09T22:24:16;100461.42;;;6.35;75.46
59315;BME280;46521;50.160;20.802;2023-04-09T22:34:29;100453.08;;;6.29;76.26
59315;BME280;46521;50.160;20.802;2023-04-09T22:44:56;100444.14;;;6.21;76.08
59315;BME280;46521;50.160;20.802;2023-04-09T22:54:58;100441.64;;;6.19;75.73
59315;BME280;46521;50.160;20.802;2023-04-09T23:04:59;100444.74;;;6.13;76.46
59315;BME280;46521;50.160;20.802;2023-04-09T23:15:02;100446.63;;;6.11;76.04
59315;BME280;46521;50.160;20.802;2023-04-09T23:25:04;100440.56;;;5.99;75.87
59315;BME280;46521;50.160;20.802;2023-04-09T23:35:06;100430.97;;;5.87;76.45
59315;BME280;46521;50.160;20.802;2023-04-09T23:45:08;100420.11;;;5.80;76.43
